Radcliff, Ohio
Current Conditions -  °F | °C
As of 7:35 AM on Friday 24 Oct 2014 (Local Time) from KUNI Reporting Station
Clear Clear  
Wind Chill: 35°   Ceiling: Unl
Heat Index: 35°   Visibility: 10mi
Dew Point: 34°   Wind: 0mph
Humidity: 95%   Direction: NA
Pressure: 30.13"   Gusts: NA
Location:  39.1198°N, 82.3705°W
Report Text: KUNI 241135Z AUTO 00000KT 10SM CLR 02/01 A3013 RMK AO2 T00170010
Loading
Personal Weather Stations






























Interactive Weather Map
Tropical Storm Tracking
New forecast layout! Learn more

10-Day Weather Forecast

Advertisements
Track Severe Weather on mobile